createdAt,value
2022-10-22T00:01:07.079Z,5.75
2022-10-22T00:03:34.180Z,4.05
2022-10-22T00:06:00.861Z,2.97
2022-10-22T00:08:27.994Z,2.75
2022-10-22T00:10:54.746Z,2.97
2022-10-22T00:13:21.780Z,2.83
2022-10-22T00:15:48.720Z,3.42
2022-10-22T00:18:15.767Z,6.93
2022-10-22T00:20:43.434Z,6.30
2022-10-22T00:23:10.197Z,6.75
2022-10-22T00:25:36.900Z,6.05
2022-10-22T00:28:04.133Z,6.53
2022-10-22T00:30:30.938Z,5.88
2022-10-22T00:32:57.677Z,5.18
2022-10-22T00:35:24.553Z,7.22
2022-10-22T00:37:51.294Z,6.70
2022-10-22T00:40:17.998Z,6.05
2022-10-22T00:42:44.803Z,5.53
2022-10-22T00:45:11.458Z,5.22
2022-10-22T00:47:50.104Z,8.23
2022-10-22T00:50:35.535Z,6.22
2022-10-22T00:53:04.622Z,5.60
2022-10-22T00:55:32.911Z,4.70
2022-10-22T00:58:00.140Z,5.85
2022-10-22T01:00:27.564Z,8.95
2022-10-22T01:02:54.936Z,8.15
2022-10-22T01:05:21.671Z,7.50
2022-10-22T01:07:50.640Z,5.95
2022-10-22T01:10:36.187Z,6.90
2022-10-22T01:13:17.999Z,6.22
2022-10-22T01:15:47.656Z,7.25
2022-10-22T01:18:32.660Z,8.27
2022-10-22T01:21:12.292Z,5.40
2022-10-22T01:23:57.788Z,8.95
2022-10-22T01:26:39.360Z,4.22
2022-10-22T01:29:21.236Z,6.22
2022-10-22T01:32:05.829Z,5.45
2022-10-22T01:34:33.692Z,5.55
2022-10-22T01:37:00.800Z,4.47
2022-10-22T01:39:29.668Z,7.00
2022-10-22T01:41:57.139Z,9.02
2022-10-22T01:44:33.817Z,6.90
2022-10-22T01:47:12.679Z,8.15
2022-10-22T01:50:07.366Z,8.90
2022-10-22T01:52:48.951Z,7.53
2022-10-22T01:55:23.787Z,6.22
2022-10-22T01:58:10.226Z,6.65
2022-10-22T02:00:38.862Z,6.70
2022-10-22T02:03:17.422Z,4.63
2022-10-22T02:08:27.694Z,4.40
2022-10-22T02:10:55.111Z,3.72
2022-10-22T02:13:25.292Z,9.77
2022-10-22T02:15:52.790Z,6.10
2022-10-22T02:18:24.705Z,6.75
2022-10-22T02:20:52.943Z,4.50
2022-10-22T02:23:21.019Z,8.00
2022-10-22T02:25:50.331Z,4.78
2022-10-22T02:28:34.104Z,4.45
2022-10-22T02:31:14.447Z,4.35
2022-10-22T02:33:48.154Z,4.90
2022-10-22T02:36:16.768Z,3.72
2022-10-22T02:38:43.711Z,6.10
2022-10-22T02:41:10.630Z,4.88
2022-10-22T02:43:45.145Z,3.75
2022-10-22T02:46:11.976Z,4.28
2022-10-22T02:48:38.808Z,4.97
2022-10-22T02:51:05.674Z,5.43
2022-10-22T02:53:33.129Z,4.28
2022-10-22T02:56:00.499Z,3.95
2022-10-22T02:58:27.680Z,3.28
2022-10-22T03:00:54.565Z,3.65
2022-10-22T03:03:21.858Z,2.28
2022-10-22T03:05:50.643Z,3.75
2022-10-22T03:08:17.788Z,3.08
2022-10-22T03:10:44.654Z,2.50
2022-10-22T03:13:11.397Z,2.00
2022-10-22T03:15:38.193Z,2.40
2022-10-22T03:18:04.942Z,1.70
2022-10-22T03:20:31.690Z,1.52
2022-10-22T03:22:58.642Z,1.45
2022-10-22T03:25:27.298Z,1.73
2022-10-22T03:27:56.408Z,2.13
2022-10-22T03:30:23.116Z,1.38
2022-10-22T03:32:49.787Z,1.05
2022-10-22T03:35:16.704Z,2.10
2022-10-22T03:37:43.570Z,1.63
2022-10-22T03:40:11.631Z,2.10
2022-10-22T03:42:38.735Z,1.80
2022-10-22T03:45:06.285Z,2.33
2022-10-22T03:47:33.035Z,2.58
2022-10-22T03:49:59.878Z,3.22
2022-10-22T03:52:26.569Z,3.67
2022-10-22T03:54:53.358Z,3.17
2022-10-22T03:57:20.104Z,2.72
2022-10-22T03:59:47.242Z,2.75
2022-10-22T04:02:14.685Z,2.47
2022-10-22T04:04:41.628Z,2.03
2022-10-22T04:07:08.849Z,2.25
2022-10-22T04:09:35.793Z,2.38
2022-10-22T04:12:02.547Z,3.65
2022-10-22T04:14:29.319Z,2.35
2022-10-22T04:16:56.051Z,2.63
2022-10-22T04:19:22.824Z,2.33
2022-10-22T04:21:49.592Z,2.42
2022-10-22T04:24:16.593Z,2.33
2022-10-22T04:26:43.351Z,3.47
2022-10-22T04:29:13.441Z,2.72
2022-10-22T04:31:43.144Z,2.15
2022-10-22T04:34:09.903Z,3.53
2022-10-22T04:36:36.626Z,3.42
2022-10-22T04:39:04.475Z,4.15
2022-10-22T04:41:33.893Z,2.63
2022-10-22T04:44:00.889Z,3.05
2022-10-22T04:46:30.105Z,3.95
2022-10-22T04:48:56.782Z,3.58
2022-10-22T04:51:25.078Z,4.65
2022-10-22T04:53:52.293Z,3.83
2022-10-22T04:56:21.514Z,3.78
2022-10-22T04:58:49.819Z,3.13
2022-10-22T05:01:18.764Z,3.53
2022-10-22T05:03:46.478Z,4.22
2022-10-22T05:06:14.274Z,2.80
2022-10-22T05:08:41.882Z,4.75
2022-10-22T05:11:12.444Z,5.20
2022-10-22T05:13:39.197Z,2.97
2022-10-22T05:16:06.179Z,2.63
2022-10-22T05:18:37.682Z,3.63
2022-10-22T05:21:07.852Z,3.20
2022-10-22T05:23:34.643Z,3.30
2022-10-22T05:26:08.705Z,3.60
2022-10-22T05:28:36.035Z,4.30
2022-10-22T05:31:04.110Z,4.10
2022-10-22T05:33:32.457Z,5.47
2022-10-22T05:35:59.321Z,3.83
2022-10-22T05:38:26.505Z,3.35
2022-10-22T05:41:06.500Z,3.45
2022-10-22T05:43:33.856Z,2.80
2022-10-22T05:46:08.756Z,5.43
2022-10-22T05:48:35.636Z,4.25
2022-10-22T05:51:07.319Z,4.40
2022-10-22T05:53:34.983Z,3.38
2022-10-22T05:56:03.056Z,3.58
2022-10-22T05:58:30.162Z,6.05
2022-10-22T06:01:04.918Z,2.78
2022-10-22T06:03:32.255Z,2.30
2022-10-22T06:06:05.109Z,4.65
2022-10-22T06:08:31.963Z,4.10
2022-10-22T06:10:58.779Z,1.50
2022-10-22T06:13:25.635Z,4.10
2022-10-22T06:15:53.568Z,5.55
2022-10-22T06:18:20.675Z,17.55
2022-10-22T06:20:47.739Z,2.47
2022-10-22T06:23:15.375Z,4.80
2022-10-22T06:25:43.570Z,6.97
2022-10-22T06:28:10.783Z,4.13
2022-10-22T06:30:41.802Z,8.27
2022-10-22T06:33:11.149Z,4.95
2022-10-22T06:35:37.852Z,5.10
2022-10-22T06:38:04.632Z,2.28
2022-10-22T06:40:31.367Z,3.30
2022-10-22T06:42:59.763Z,4.65
2022-10-22T06:45:26.674Z,2.40
2022-10-22T06:47:53.827Z,1.45
2022-10-22T06:50:20.532Z,1.65
2022-10-22T06:52:47.459Z,1.50
2022-10-22T06:55:14.222Z,1.38
2022-10-22T06:57:41.366Z,2.00
2022-10-22T07:00:09.153Z,1.50
2022-10-22T07:02:35.947Z,1.10
2022-10-22T07:05:02.742Z,1.40
2022-10-22T07:07:29.521Z,2.00
2022-10-22T07:09:56.788Z,2.00
2022-10-22T07:12:23.560Z,3.30
2022-10-22T07:14:50.315Z,2.88
2022-10-22T07:17:17.151Z,4.28
2022-10-22T07:19:45.298Z,3.35
2022-10-22T07:22:13.926Z,5.63
2022-10-22T07:24:40.630Z,4.57
2022-10-22T07:27:09.499Z,3.20
2022-10-22T07:29:38.546Z,2.40
2022-10-22T07:32:05.374Z,2.20
2022-10-22T07:34:32.192Z,3.60
2022-10-22T07:36:59.389Z,3.17
2022-10-22T07:39:26.212Z,2.67
2022-10-22T07:41:54.841Z,1.70
2022-10-22T07:44:21.628Z,1.83
2022-10-22T07:46:49.088Z,3.78
2022-10-22T07:49:15.971Z,1.80
2022-10-22T07:51:42.675Z,2.60
2022-10-22T07:54:09.477Z,2.80
2022-10-22T07:56:36.221Z,1.67
2022-10-22T07:59:03.071Z,1.60
2022-10-22T08:01:29.878Z,2.95
2022-10-22T08:03:56.652Z,2.47
2022-10-22T08:06:23.420Z,1.75
2022-10-22T08:08:50.438Z,2.92
2022-10-22T08:11:17.228Z,2.28
2022-10-22T08:13:45.662Z,1.65
2022-10-22T08:16:13.002Z,1.75
2022-10-22T08:18:39.908Z,2.40
2022-10-22T08:21:06.954Z,1.48
2022-10-22T08:23:34.462Z,2.20
2022-10-22T08:26:02.985Z,2.00
2022-10-22T08:28:31.254Z,1.58
2022-10-22T08:30:58.084Z,2.65
2022-10-22T08:33:24.998Z,1.30
2022-10-22T08:35:52.456Z,3.17
2022-10-22T08:38:20.167Z,2.55
2022-10-22T08:40:57.326Z,2.55
2022-10-22T08:43:45.390Z,2.28
2022-10-22T08:46:15.116Z,2.00
2022-10-22T08:48:46.379Z,1.10
2022-10-22T08:51:17.636Z,1.45
2022-10-22T08:54:10.677Z,1.90
2022-10-22T08:56:38.355Z,1.90
2022-10-22T08:59:30.580Z,2.00
2022-10-22T09:01:57.472Z,1.23
2022-10-22T09:04:38.197Z,1.20
2022-10-22T09:07:04.996Z,1.48
2022-10-22T09:09:40.123Z,1.90
2022-10-22T09:12:07.444Z,1.85
2022-10-22T09:14:34.254Z,2.17
2022-10-22T09:17:33.969Z,1.75
2022-10-22T09:20:28.613Z,1.38
2022-10-22T09:23:01.677Z,1.40
2022-10-22T09:25:31.421Z,1.48
2022-10-22T09:27:59.075Z,1.65
2022-10-22T09:30:29.796Z,1.23
2022-10-22T09:33:06.939Z,0.88
2022-10-22T09:35:38.914Z,1.05
2022-10-22T09:38:08.874Z,1.33
2022-10-22T09:40:53.205Z,0.90
2022-10-22T09:43:20.307Z,1.33
2022-10-22T09:45:48.532Z,1.35
2022-10-22T09:48:18.939Z,1.20
2022-10-22T09:50:48.051Z,1.20
2022-10-22T09:53:19.321Z,1.13
2022-10-22T09:55:52.730Z,0.73
2022-10-22T09:58:20.189Z,0.60
2022-10-22T10:00:54.745Z,0.73
2022-10-22T10:03:31.848Z,0.85
2022-10-22T10:06:04.707Z,1.33
2022-10-22T10:08:33.336Z,1.08
2022-10-22T10:11:05.828Z,1.00
2022-10-22T10:13:43.754Z,1.58
2022-10-22T10:16:27.507Z,3.50
2022-10-22T10:18:54.476Z,5.07
2022-10-22T10:21:54.367Z,11.25
2022-10-22T10:24:33.132Z,29.75
2022-10-22T10:27:10.482Z,12.02
2022-10-22T10:29:44.925Z,12.40
2022-10-22T10:32:23.730Z,6.75
2022-10-22T10:35:09.359Z,3.50
2022-10-22T10:37:46.621Z,4.32
2022-10-22T10:40:19.991Z,3.45
2022-10-22T10:43:41.512Z,1.98
2022-10-22T10:46:19.995Z,2.22
2022-10-22T10:49:11.219Z,1.00
2022-10-22T10:51:55.156Z,1.20
2022-10-22T10:54:47.024Z,0.40
2022-10-22T10:57:13.762Z,0.43
2022-10-22T11:00:00.493Z,0.30
2022-10-22T11:03:04.768Z,0.80
2022-10-22T11:05:39.463Z,0.30
2022-10-22T11:08:09.150Z,0.32
2022-10-22T11:10:50.829Z,0.55
2022-10-22T11:13:37.216Z,0.70
2022-10-22T11:16:12.365Z,0.47
2022-10-22T11:18:44.112Z,0.50
2022-10-22T11:21:27.665Z,0.20
2022-10-22T11:24:20.040Z,0.20
2022-10-22T11:27:07.333Z,0.20
2022-10-22T11:29:39.488Z,0.20
2022-10-22T11:32:12.934Z,0.17
2022-10-22T11:34:47.339Z,0.20
2022-10-22T11:37:14.883Z,0.20
2022-10-22T11:39:45.930Z,0.20
2022-10-22T11:42:19.712Z,0.30
2022-10-22T11:45:15.234Z,0.38
2022-10-22T11:48:10.472Z,0.20
2022-10-22T11:50:53.039Z,0.50
2022-10-22T11:53:26.057Z,0.80
2022-10-22T11:55:55.606Z,0.45
2022-10-22T11:58:28.288Z,0.60
2022-10-22T12:01:07.315Z,0.88
2022-10-22T12:03:34.769Z,0.50
2022-10-22T12:06:15.012Z,0.30
2022-10-22T12:08:48.965Z,0.22
2022-10-22T12:11:27.638Z,0.32
2022-10-22T12:14:12.996Z,0.25
2022-10-22T12:16:56.211Z,0.50
2022-10-22T12:19:25.878Z,0.25
2022-10-22T12:21:55.121Z,0.20
2022-10-22T12:24:24.379Z,0.30
2022-10-22T12:26:52.777Z,0.40
2022-10-22T12:29:26.547Z,0.30
2022-10-22T12:31:54.242Z,0.40
2022-10-22T12:34:25.005Z,0.20
2022-10-22T12:36:53.620Z,0.20
2022-10-22T12:39:24.168Z,0.20
2022-10-22T12:41:53.109Z,0.20
2022-10-22T12:44:20.588Z,0.20
2022-10-22T12:46:51.738Z,0.10
2022-10-22T12:49:23.475Z,0.20
2022-10-22T12:51:50.303Z,0.50
2022-10-22T12:54:27.619Z,0.52
2022-10-22T12:56:56.082Z,0.38
2022-10-22T12:59:26.108Z,0.30
2022-10-22T13:01:53.917Z,0.20
2022-10-22T13:04:26.766Z,0.20
2022-10-22T13:07:06.410Z,0.30
2022-10-22T13:09:39.373Z,0.28
2022-10-22T13:12:07.990Z,0.28
2022-10-22T13:14:38.989Z,0.15
2022-10-22T13:19:49.162Z,0.10
2022-10-22T13:22:30.499Z,0.20
2022-10-22T13:24:59.978Z,0.10
2022-10-22T13:27:28.350Z,0.10
2022-10-22T13:29:56.427Z,0.30
2022-10-22T13:32:33.922Z,0.25
2022-10-22T13:35:04.431Z,0.25
2022-10-22T13:37:32.911Z,0.30
2022-10-22T13:39:59.839Z,0.20
2022-10-22T13:42:26.647Z,0.30
2022-10-22T13:44:53.390Z,0.20
2022-10-22T13:47:29.812Z,0.65
2022-10-22T13:49:58.874Z,0.30
2022-10-22T13:52:33.060Z,0.20
2022-10-22T13:54:59.971Z,0.10
2022-10-22T13:57:26.683Z,0.17
2022-10-22T13:59:53.627Z,0.10
2022-10-22T14:02:22.403Z,0.20
2022-10-22T14:04:49.654Z,0.22
2022-10-22T14:07:17.023Z,0.30
2022-10-22T14:09:43.843Z,0.30
2022-10-22T14:12:13.167Z,0.10
2022-10-22T14:14:40.146Z,0.10
2022-10-22T14:17:11.106Z,0.20
2022-10-22T14:19:37.971Z,0.28
2022-10-22T14:22:05.216Z,0.40
2022-10-22T14:24:31.953Z,0.20
2022-10-22T14:26:58.623Z,0.20
2022-10-22T14:29:25.439Z,0.10
2022-10-22T14:31:52.132Z,0.20
2022-10-22T14:34:18.878Z,0.20
2022-10-22T14:36:58.669Z,0.20
2022-10-22T14:39:25.504Z,0.10
2022-10-22T14:41:52.213Z,0.13
2022-10-22T14:44:18.963Z,0.15
2022-10-22T14:46:47.027Z,0.20
2022-10-22T14:49:13.972Z,0.30
2022-10-22T14:51:40.838Z,0.20
2022-10-22T14:54:07.626Z,0.35
2022-10-22T14:56:34.498Z,0.30
2022-10-22T14:59:01.379Z,0.10
2022-10-22T15:01:28.315Z,0.20
2022-10-22T15:03:55.059Z,0.10
2022-10-22T15:06:21.829Z,0.30
2022-10-22T15:08:48.686Z,0.40
2022-10-22T15:11:15.617Z,0.10
2022-10-22T15:13:42.433Z,0.30
2022-10-22T15:16:10.790Z,0.47
2022-10-22T15:18:37.758Z,0.70
2022-10-22T15:21:13.405Z,1.02
2022-10-22T15:23:40.723Z,1.30
2022-10-22T15:26:09.066Z,1.13
2022-10-22T15:28:37.663Z,1.55
2022-10-22T15:31:04.926Z,1.70
2022-10-22T15:33:31.736Z,1.55
2022-10-22T15:35:59.201Z,1.95
2022-10-22T15:43:33.172Z,2.08
2022-10-22T15:46:13.296Z,1.30
2022-10-22T15:48:40.626Z,1.27
2022-10-22T15:51:25.795Z,1.60
2022-10-22T15:53:57.963Z,1.50
2022-10-22T15:56:26.721Z,1.83
2022-10-22T15:58:55.219Z,1.67
2022-10-22T16:01:22.386Z,1.50
2022-10-22T16:03:52.667Z,1.70
2022-10-22T16:06:19.665Z,1.90
2022-10-22T16:11:35.108Z,1.50
2022-10-22T16:14:02.068Z,1.80
2022-10-22T16:16:32.150Z,1.20
2022-10-22T16:18:58.927Z,1.43
2022-10-22T16:21:26.287Z,1.30
2022-10-22T16:23:53.887Z,1.90
2022-10-22T16:26:21.310Z,1.33
2022-10-22T16:28:49.555Z,1.60
2022-10-22T16:31:17.812Z,1.80
2022-10-22T16:33:47.921Z,1.50
2022-10-22T16:36:19.173Z,1.65
2022-10-22T16:38:47.215Z,2.83
2022-10-22T16:41:24.644Z,2.05
2022-10-22T16:43:55.022Z,2.28
2022-10-22T16:46:22.841Z,2.03
2022-10-22T16:48:52.004Z,2.40
2022-10-22T16:51:21.572Z,2.63
2022-10-22T16:53:48.455Z,1.67
2022-10-22T16:56:16.669Z,1.80
2022-10-22T16:58:48.323Z,2.83
2022-10-22T17:01:19.668Z,2.60
2022-10-22T17:03:46.666Z,2.45
2022-10-22T17:06:13.578Z,2.95
2022-10-22T17:08:41.096Z,3.00
2022-10-22T17:11:12.839Z,4.10
2022-10-22T17:13:42.845Z,2.67
2022-10-22T17:16:12.279Z,4.78
2022-10-22T17:18:40.351Z,7.88
2022-10-22T17:21:08.699Z,6.95
2022-10-22T17:23:35.522Z,5.40
2022-10-22T17:26:08.003Z,3.22
2022-10-22T17:28:38.733Z,3.50
2022-10-22T17:31:29.873Z,3.50
2022-10-22T17:36:24.712Z,2.38
2022-10-22T17:38:54.041Z,2.60
2022-10-22T17:41:23.329Z,3.45
2022-10-22T17:43:50.629Z,2.78
2022-10-22T17:46:22.796Z,3.38
2022-10-22T17:48:54.104Z,2.78
2022-10-22T17:51:21.749Z,3.08
2022-10-22T17:53:50.696Z,2.70
2022-10-22T17:56:22.591Z,3.85
2022-10-22T17:58:49.950Z,3.90
2022-10-22T18:01:28.544Z,3.38
2022-10-22T18:03:59.752Z,4.00
2022-10-22T18:06:26.660Z,3.33
2022-10-22T18:11:26.543Z,2.97
2022-10-22T18:13:56.270Z,2.55
2022-10-22T18:16:23.707Z,2.67
2022-10-22T18:18:53.379Z,3.95
2022-10-22T18:21:21.451Z,3.13
2022-10-22T18:23:48.193Z,3.47
2022-10-22T18:26:15.620Z,4.60
2022-10-22T18:28:42.387Z,4.28
2022-10-22T18:31:11.603Z,4.95
2022-10-22T18:33:39.549Z,5.45
2022-10-22T18:36:08.971Z,5.90
2022-10-22T18:38:38.181Z,4.53
2022-10-22T18:41:09.666Z,5.25
2022-10-22T18:43:37.062Z,5.70
2022-10-22T18:46:07.015Z,5.18
2022-10-22T18:48:35.252Z,3.05
2022-10-22T18:51:07.850Z,4.82
2022-10-22T18:53:37.964Z,3.60
2022-10-22T18:56:06.869Z,3.73
2022-10-22T18:58:41.644Z,3.17
2022-10-22T19:01:10.998Z,4.93
2022-10-22T19:03:37.774Z,6.07
2022-10-22T19:06:04.751Z,4.15
2022-10-22T19:08:32.166Z,5.00
2022-10-22T19:10:58.935Z,5.95
2022-10-22T19:13:25.845Z,6.13
2022-10-22T19:15:52.944Z,3.97
2022-10-22T19:18:19.732Z,4.78
2022-10-22T19:20:48.747Z,5.28
2022-10-22T19:23:19.908Z,3.30
2022-10-22T19:25:47.622Z,4.05
2022-10-22T19:28:14.364Z,3.30
2022-10-22T19:30:44.176Z,2.90
2022-10-22T19:33:11.049Z,4.10
2022-10-22T19:35:37.787Z,3.83
2022-10-22T19:38:04.503Z,3.17
2022-10-22T19:40:31.327Z,3.25
2022-10-22T19:42:58.082Z,2.90
2022-10-22T19:45:24.780Z,3.80
2022-10-22T19:47:51.559Z,3.58
2022-10-22T19:50:18.467Z,3.40
2022-10-22T19:52:45.199Z,2.90
2022-10-22T19:55:12.054Z,3.03
2022-10-22T19:57:38.952Z,3.22
2022-10-22T20:00:06.398Z,3.03
2022-10-22T20:02:36.821Z,3.42
2022-10-22T20:05:04.010Z,2.15
2022-10-22T20:07:30.790Z,1.80
2022-10-22T20:09:57.568Z,2.08
2022-10-22T20:12:24.354Z,1.65
2022-10-22T20:14:51.610Z,1.15
2022-10-22T20:17:18.868Z,2.50
2022-10-22T20:19:45.881Z,1.55
2022-10-22T20:22:14.968Z,1.30
2022-10-22T20:24:44.898Z,0.85
2022-10-22T20:27:13.549Z,0.82
2022-10-22T20:29:40.347Z,0.70
2022-10-22T20:32:08.806Z,0.82
2022-10-22T20:34:35.989Z,0.90
2022-10-22T20:37:02.745Z,1.13
2022-10-22T20:39:29.650Z,0.60
2022-10-22T20:41:56.389Z,0.65
2022-10-22T20:44:23.220Z,0.60
2022-10-22T20:46:51.432Z,0.80
2022-10-22T20:49:18.539Z,0.70
2022-10-22T20:51:45.539Z,0.63
2022-10-22T20:54:14.041Z,0.55
2022-10-22T20:56:41.249Z,0.40
2022-10-22T20:59:10.855Z,0.45
2022-10-22T21:01:40.374Z,0.50
2022-10-22T21:04:07.823Z,0.45
2022-10-22T21:06:37.951Z,0.20
2022-10-22T21:09:06.721Z,0.57
2022-10-22T21:11:33.493Z,0.60
2022-10-22T21:14:00.524Z,0.30
2022-10-22T21:16:27.858Z,0.32
2022-10-22T21:18:54.801Z,0.40
2022-10-22T21:21:21.656Z,0.30
2022-10-22T21:23:50.310Z,0.30
2022-10-22T21:26:18.693Z,0.30
2022-10-22T21:28:46.057Z,0.20
2022-10-22T21:31:22.153Z,0.45
2022-10-22T21:33:50.348Z,0.52
2022-10-22T21:36:21.619Z,0.30
2022-10-22T21:38:50.787Z,0.50
2022-10-22T21:41:19.488Z,0.43
2022-10-22T21:43:46.612Z,0.30
2022-10-22T21:46:16.398Z,0.38
2022-10-22T21:48:43.630Z,0.50
2022-10-22T21:51:15.911Z,0.30
2022-10-22T21:53:43.503Z,0.50
2022-10-22T21:56:15.727Z,0.45
2022-10-22T21:58:42.677Z,0.57
2022-10-22T22:01:09.598Z,0.77
2022-10-22T22:03:36.462Z,0.60
2022-10-22T22:06:06.760Z,0.30
2022-10-22T22:08:34.257Z,0.47
2022-10-22T22:11:06.926Z,0.40
2022-10-22T22:13:33.897Z,0.52
2022-10-22T22:16:06.244Z,0.40
2022-10-22T22:18:34.056Z,0.60
2022-10-22T22:21:07.810Z,0.60
2022-10-22T22:23:37.626Z,0.50
2022-10-22T22:26:05.131Z,0.45
2022-10-22T22:28:32.808Z,0.60
2022-10-22T22:30:59.757Z,0.70
2022-10-22T22:33:27.250Z,0.88
2022-10-22T22:35:58.424Z,0.70
2022-10-22T22:38:25.351Z,0.52
2022-10-22T22:40:52.185Z,0.47
2022-10-22T22:43:19.092Z,0.80
2022-10-22T22:45:45.772Z,1.02
2022-10-22T22:48:12.579Z,0.52
2022-10-22T22:50:39.323Z,0.50
2022-10-22T22:53:06.147Z,0.52
2022-10-22T22:55:32.879Z,0.40
2022-10-22T22:57:59.813Z,0.90
2022-10-22T23:00:26.674Z,0.73
2022-10-22T23:02:56.689Z,0.68
2022-10-22T23:05:23.379Z,0.55
2022-10-22T23:07:51.459Z,0.65
2022-10-22T23:10:18.802Z,1.40
2022-10-22T23:12:45.911Z,0.88
2022-10-22T23:15:12.803Z,0.70
2022-10-22T23:17:39.634Z,0.82
2022-10-22T23:20:07.541Z,0.55
2022-10-22T23:22:34.345Z,0.75
2022-10-22T23:25:01.223Z,0.68
2022-10-22T23:27:28.002Z,0.65
2022-10-22T23:29:54.753Z,0.73
2022-10-22T23:32:21.569Z,0.57
2022-10-22T23:34:48.352Z,0.88
2022-10-22T23:37:15.108Z,0.82
2022-10-22T23:39:41.881Z,0.90
2022-10-22T23:42:08.731Z,0.80
2022-10-22T23:44:35.656Z,0.80
2022-10-22T23:47:02.398Z,1.00
2022-10-22T23:49:29.117Z,0.75
2022-10-22T23:51:55.893Z,0.90
2022-10-22T23:54:22.618Z,0.63
2022-10-22T23:56:49.394Z,1.00
2022-10-22T23:59:16.485Z,0.73
